sensor_id;sensor_type;location;lat;lon;timestamp;P1;durP1;ratioP1;P2;durP2;ratioP2
75289;SDS011;63883;48.996;20.804;2024-02-04T00:01:40;25.98;;;13.68;;
75289;SDS011;63883;48.996;20.804;2024-02-04T00:04:06;26.30;;;13.80;;
75289;SDS011;63883;48.996;20.804;2024-02-04T00:06:32;33.70;;;17.52;;
75289;SDS011;63883;48.996;20.804;2024-02-04T00:08:58;34.40;;;17.75;;
75289;SDS011;63883;48.996;20.804;2024-02-04T00:11:23;27.27;;;15.20;;
75289;SDS011;63883;48.996;20.804;2024-02-04T00:13:49;26.52;;;13.65;;
75289;SDS011;63883;48.996;20.804;2024-02-04T00:16:15;24.55;;;12.73;;
75289;SDS011;63883;48.996;20.804;2024-02-04T00:18:41;29.58;;;13.65;;
75289;SDS011;63883;48.996;20.804;2024-02-04T00:21:06;25.23;;;13.38;;
75289;SDS011;63883;48.996;20.804;2024-02-04T00:23:32;30.20;;;14.30;;
75289;SDS011;63883;48.996;20.804;2024-02-04T00:25:57;27.23;;;14.23;;
75289;SDS011;63883;48.996;20.804;2024-02-04T00:28:23;25.95;;;13.10;;
75289;SDS011;63883;48.996;20.804;2024-02-04T00:30:49;24.45;;;12.95;;
75289;SDS011;63883;48.996;20.804;2024-02-04T00:33:15;32.42;;;18.08;;
75289;SDS011;63883;48.996;20.804;2024-02-04T00:35:41;38.10;;;20.15;;
75289;SDS011;63883;48.996;20.804;2024-02-04T00:38:07;35.15;;;18.02;;
75289;SDS011;63883;48.996;20.804;2024-02-04T00:40:34;33.88;;;18.58;;
75289;SDS011;63883;48.996;20.804;2024-02-04T00:43:00;62.33;;;26.88;;
75289;SDS011;63883;48.996;20.804;2024-02-04T00:45:26;64.63;;;28.38;;
75289;SDS011;63883;48.996;20.804;2024-02-04T00:47:52;63.90;;;28.55;;
75289;SDS011;63883;48.996;20.804;2024-02-04T00:50:17;68.68;;;28.80;;
75289;SDS011;63883;48.996;20.804;2024-02-04T00:52:43;37.63;;;17.13;;
75289;SDS011;63883;48.996;20.804;2024-02-04T00:55:09;69.95;;;28.33;;
75289;SDS011;63883;48.996;20.804;2024-02-04T00:57:35;57.90;;;26.17;;
75289;SDS011;63883;48.996;20.804;2024-02-04T01:00:00;51.17;;;21.65;;
75289;SDS011;63883;48.996;20.804;2024-02-04T01:02:27;27.00;;;14.25;;
75289;SDS011;63883;48.996;20.804;2024-02-04T01:04:52;26.85;;;13.68;;
75289;SDS011;63883;48.996;20.804;2024-02-04T01:07:18;39.65;;;18.42;;
75289;SDS011;63883;48.996;20.804;2024-02-04T01:09:44;25.45;;;13.98;;
75289;SDS011;63883;48.996;20.804;2024-02-04T01:12:09;20.70;;;12.00;;
75289;SDS011;63883;48.996;20.804;2024-02-04T01:14:35;23.13;;;12.02;;
75289;SDS011;63883;48.996;20.804;2024-02-04T01:17:01;21.10;;;11.45;;
75289;SDS011;63883;48.996;20.804;2024-02-04T01:19:26;20.88;;;11.75;;
75289;SDS011;63883;48.996;20.804;2024-02-04T01:21:52;22.67;;;12.02;;
75289;SDS011;63883;48.996;20.804;2024-02-04T01:24:18;23.33;;;12.45;;
75289;SDS011;63883;48.996;20.804;2024-02-04T01:26:44;22.08;;;11.52;;
75289;SDS011;63883;48.996;20.804;2024-02-04T01:29:09;24.92;;;12.40;;
75289;SDS011;63883;48.996;20.804;2024-02-04T01:31:35;26.17;;;12.82;;
75289;SDS011;63883;48.996;20.804;2024-02-04T01:34:00;27.23;;;13.60;;
75289;SDS011;63883;48.996;20.804;2024-02-04T01:36:26;22.48;;;12.10;;
75289;SDS011;63883;48.996;20.804;2024-02-04T01:38:52;21.85;;;11.57;;
75289;SDS011;63883;48.996;20.804;2024-02-04T01:41:18;21.90;;;11.90;;
75289;SDS011;63883;48.996;20.804;2024-02-04T01:43:43;22.52;;;12.20;;
75289;SDS011;63883;48.996;20.804;2024-02-04T01:46:09;26.42;;;12.68;;
75289;SDS011;63883;48.996;20.804;2024-02-04T01:48:36;27.33;;;13.57;;
75289;SDS011;63883;48.996;20.804;2024-02-04T01:51:02;28.77;;;14.90;;
75289;SDS011;63883;48.996;20.804;2024-02-04T01:53:29;29.75;;;15.90;;
75289;SDS011;63883;48.996;20.804;2024-02-04T01:55:59;29.27;;;14.95;;
75289;SDS011;63883;48.996;20.804;2024-02-04T01:58:25;32.08;;;15.98;;
75289;SDS011;63883;48.996;20.804;2024-02-04T02:00:51;32.83;;;16.88;;
75289;SDS011;63883;48.996;20.804;2024-02-04T02:03:16;32.97;;;16.90;;
75289;SDS011;63883;48.996;20.804;2024-02-04T02:05:42;31.70;;;16.27;;
75289;SDS011;63883;48.996;20.804;2024-02-04T02:08:08;32.83;;;17.05;;
75289;SDS011;63883;48.996;20.804;2024-02-04T02:10:35;30.13;;;17.17;;
75289;SDS011;63883;48.996;20.804;2024-02-04T02:15:48;31.38;;;16.35;;
75289;SDS011;63883;48.996;20.804;2024-02-04T02:24:16;33.35;;;16.60;;
75289;SDS011;63883;48.996;20.804;2024-02-04T02:26:49;32.20;;;16.73;;
75289;SDS011;63883;48.996;20.804;2024-02-04T02:29:16;31.15;;;16.67;;
75289;SDS011;63883;48.996;20.804;2024-02-04T02:31:42;29.17;;;15.35;;
75289;SDS011;63883;48.996;20.804;2024-02-04T02:34:08;33.25;;;16.60;;
75289;SDS011;63883;48.996;20.804;2024-02-04T02:36:45;27.17;;;14.73;;
75289;SDS011;63883;48.996;20.804;2024-02-04T02:39:17;28.85;;;15.40;;
75289;SDS011;63883;48.996;20.804;2024-02-04T02:41:48;33.05;;;16.23;;
75289;SDS011;63883;48.996;20.804;2024-02-04T02:44:18;30.98;;;15.30;;
75289;SDS011;63883;48.996;20.804;2024-02-04T02:46:45;30.23;;;15.45;;
75289;SDS011;63883;48.996;20.804;2024-02-04T02:49:12;29.90;;;14.55;;
75289;SDS011;63883;48.996;20.804;2024-02-04T02:51:39;26.33;;;14.43;;
75289;SDS011;63883;48.996;20.804;2024-02-04T02:54:04;26.83;;;14.20;;
75289;SDS011;63883;48.996;20.804;2024-02-04T02:56:30;28.85;;;15.02;;
75289;SDS011;63883;48.996;20.804;2024-02-04T02:58:56;26.25;;;14.63;;
75289;SDS011;63883;48.996;20.804;2024-02-04T03:01:21;29.08;;;15.10;;
75289;SDS011;63883;48.996;20.804;2024-02-04T03:03:48;29.13;;;14.88;;
75289;SDS011;63883;48.996;20.804;2024-02-04T03:06:15;27.27;;;15.20;;
75289;SDS011;63883;48.996;20.804;2024-02-04T03:08:40;30.35;;;15.48;;
75289;SDS011;63883;48.996;20.804;2024-02-04T03:11:06;29.20;;;15.40;;
75289;SDS011;63883;48.996;20.804;2024-02-04T03:13:32;28.42;;;14.73;;
75289;SDS011;63883;48.996;20.804;2024-02-04T03:15:58;28.98;;;15.32;;
75289;SDS011;63883;48.996;20.804;2024-02-04T03:18:23;27.95;;;15.30;;
75289;SDS011;63883;48.996;20.804;2024-02-04T03:20:49;31.33;;;16.05;;
75289;SDS011;63883;48.996;20.804;2024-02-04T03:23:14;29.00;;;15.60;;
75289;SDS011;63883;48.996;20.804;2024-02-04T03:25:41;29.63;;;15.32;;
75289;SDS011;63883;48.996;20.804;2024-02-04T03:28:06;33.80;;;17.30;;
75289;SDS011;63883;48.996;20.804;2024-02-04T03:30:32;29.27;;;15.15;;
75289;SDS011;63883;48.996;20.804;2024-02-04T03:32:57;31.95;;;16.27;;
75289;SDS011;63883;48.996;20.804;2024-02-04T03:35:23;30.05;;;15.70;;
75289;SDS011;63883;48.996;20.804;2024-02-04T03:37:49;29.58;;;17.45;;
75289;SDS011;63883;48.996;20.804;2024-02-04T03:40:14;29.33;;;14.93;;
75289;SDS011;63883;48.996;20.804;2024-02-04T03:42:40;27.05;;;15.30;;
75289;SDS011;63883;48.996;20.804;2024-02-04T03:45:06;28.95;;;15.05;;
75289;SDS011;63883;48.996;20.804;2024-02-04T03:47:32;30.45;;;15.00;;
75289;SDS011;63883;48.996;20.804;2024-02-04T03:49:58;28.45;;;15.20;;
75289;SDS011;63883;48.996;20.804;2024-02-04T03:52:23;27.70;;;15.60;;
75289;SDS011;63883;48.996;20.804;2024-02-04T03:54:49;30.27;;;16.50;;
75289;SDS011;63883;48.996;20.804;2024-02-04T03:57:14;27.00;;;14.68;;
75289;SDS011;63883;48.996;20.804;2024-02-04T03:59:43;27.42;;;16.33;;
75289;SDS011;63883;48.996;20.804;2024-02-04T04:02:11;27.45;;;15.02;;
75289;SDS011;63883;48.996;20.804;2024-02-04T04:04:39;29.38;;;14.95;;
75289;SDS011;63883;48.996;20.804;2024-02-04T04:07:05;28.10;;;15.00;;
75289;SDS011;63883;48.996;20.804;2024-02-04T04:09:31;28.75;;;15.00;;
75289;SDS011;63883;48.996;20.804;2024-02-04T04:11:57;24.75;;;13.98;;
75289;SDS011;63883;48.996;20.804;2024-02-04T04:14:22;28.30;;;14.88;;
75289;SDS011;63883;48.996;20.804;2024-02-04T04:16:48;25.35;;;13.32;;
75289;SDS011;63883;48.996;20.804;2024-02-04T04:19:14;21.17;;;11.00;;
75289;SDS011;63883;48.996;20.804;2024-02-04T04:21:39;20.90;;;11.18;;
75289;SDS011;63883;48.996;20.804;2024-02-04T04:24:05;22.75;;;12.10;;
75289;SDS011;63883;48.996;20.804;2024-02-04T04:26:31;21.88;;;12.07;;
75289;SDS011;63883;48.996;20.804;2024-02-04T04:28:57;22.13;;;11.50;;
75289;SDS011;63883;48.996;20.804;2024-02-04T04:31:22;22.60;;;11.88;;
75289;SDS011;63883;48.996;20.804;2024-02-04T04:33:48;25.52;;;12.38;;
75289;SDS011;63883;48.996;20.804;2024-02-04T04:36:14;20.08;;;11.13;;
75289;SDS011;63883;48.996;20.804;2024-02-04T04:38:40;21.48;;;11.35;;
75289;SDS011;63883;48.996;20.804;2024-02-04T04:41:05;21.55;;;11.77;;
75289;SDS011;63883;48.996;20.804;2024-02-04T04:43:31;24.00;;;12.40;;
75289;SDS011;63883;48.996;20.804;2024-02-04T04:45:56;25.75;;;13.27;;
75289;SDS011;63883;48.996;20.804;2024-02-04T04:48:22;25.25;;;13.25;;
75289;SDS011;63883;48.996;20.804;2024-02-04T04:50:48;23.23;;;13.10;;
75289;SDS011;63883;48.996;20.804;2024-02-04T04:53:14;32.75;;;15.48;;
75289;SDS011;63883;48.996;20.804;2024-02-04T04:55:39;28.95;;;15.68;;
75289;SDS011;63883;48.996;20.804;2024-02-04T04:58:05;28.13;;;15.30;;
75289;SDS011;63883;48.996;20.804;2024-02-04T05:00:30;23.35;;;13.88;;
75289;SDS011;63883;48.996;20.804;2024-02-04T05:02:56;23.55;;;11.68;;
75289;SDS011;63883;48.996;20.804;2024-02-04T05:05:22;26.15;;;13.50;;
75289;SDS011;63883;48.996;20.804;2024-02-04T05:07:48;24.98;;;14.13;;
75289;SDS011;63883;48.996;20.804;2024-02-04T05:10:13;26.00;;;13.05;;
75289;SDS011;63883;48.996;20.804;2024-02-04T05:12:39;20.42;;;11.10;;
75289;SDS011;63883;48.996;20.804;2024-02-04T05:15:05;24.08;;;13.35;;
75289;SDS011;63883;48.996;20.804;2024-02-04T05:17:31;24.27;;;13.10;;
75289;SDS011;63883;48.996;20.804;2024-02-04T05:19:58;28.05;;;14.45;;
75289;SDS011;63883;48.996;20.804;2024-02-04T05:22:24;28.73;;;14.70;;
75289;SDS011;63883;48.996;20.804;2024-02-04T05:24:50;27.77;;;14.15;;
75289;SDS011;63883;48.996;20.804;2024-02-04T05:27:15;24.52;;;13.52;;
75289;SDS011;63883;48.996;20.804;2024-02-04T05:29:41;26.55;;;14.13;;
75289;SDS011;63883;48.996;20.804;2024-02-04T05:32:07;27.73;;;14.48;;
75289;SDS011;63883;48.996;20.804;2024-02-04T05:34:33;26.75;;;13.50;;
75289;SDS011;63883;48.996;20.804;2024-02-04T05:36:59;31.85;;;16.05;;
75289;SDS011;63883;48.996;20.804;2024-02-04T05:39:25;26.90;;;14.45;;
75289;SDS011;63883;48.996;20.804;2024-02-04T05:41:51;32.85;;;16.00;;
75289;SDS011;63883;48.996;20.804;2024-02-04T05:44:17;26.92;;;14.43;;
75289;SDS011;63883;48.996;20.804;2024-02-04T05:46:43;29.35;;;15.85;;
75289;SDS011;63883;48.996;20.804;2024-02-04T05:49:08;34.85;;;17.05;;
75289;SDS011;63883;48.996;20.804;2024-02-04T05:51:38;33.47;;;17.02;;
75289;SDS011;63883;48.996;20.804;2024-02-04T05:54:05;37.47;;;18.38;;
75289;SDS011;63883;48.996;20.804;2024-02-04T05:56:32;32.25;;;18.15;;
75289;SDS011;63883;48.996;20.804;2024-02-04T05:58:58;33.42;;;18.08;;
75289;SDS011;63883;48.996;20.804;2024-02-04T06:01:23;31.63;;;17.40;;
75289;SDS011;63883;48.996;20.804;2024-02-04T06:03:49;36.78;;;18.85;;
75289;SDS011;63883;48.996;20.804;2024-02-04T06:06:15;37.95;;;20.27;;
75289;SDS011;63883;48.996;20.804;2024-02-04T06:08:42;37.63;;;19.23;;
75289;SDS011;63883;48.996;20.804;2024-02-04T06:11:14;40.22;;;20.27;;
75289;SDS011;63883;48.996;20.804;2024-02-04T06:13:41;38.58;;;20.13;;
75289;SDS011;63883;48.996;20.804;2024-02-04T06:16:08;39.72;;;20.58;;
75289;SDS011;63883;48.996;20.804;2024-02-04T06:18:35;41.72;;;20.70;;
75289;SDS011;63883;48.996;20.804;2024-02-04T06:21:03;43.30;;;21.35;;
75289;SDS011;63883;48.996;20.804;2024-02-04T06:23:29;39.85;;;20.92;;
75289;SDS011;63883;48.996;20.804;2024-02-04T06:25:55;41.13;;;22.10;;
75289;SDS011;63883;48.996;20.804;2024-02-04T06:28:20;38.42;;;19.38;;
75289;SDS011;63883;48.996;20.804;2024-02-04T06:30:46;38.25;;;19.02;;
75289;SDS011;63883;48.996;20.804;2024-02-04T06:33:11;43.40;;;20.98;;
75289;SDS011;63883;48.996;20.804;2024-02-04T06:35:37;49.50;;;20.73;;
75289;SDS011;63883;48.996;20.804;2024-02-04T06:38:03;41.72;;;21.35;;
75289;SDS011;63883;48.996;20.804;2024-02-04T06:40:29;37.42;;;19.77;;
75289;SDS011;63883;48.996;20.804;2024-02-04T06:42:54;40.78;;;20.67;;
75289;SDS011;63883;48.996;20.804;2024-02-04T06:45:20;38.38;;;17.95;;
75289;SDS011;63883;48.996;20.804;2024-02-04T06:47:45;39.22;;;19.98;;
75289;SDS011;63883;48.996;20.804;2024-02-04T06:50:11;38.75;;;20.50;;
75289;SDS011;63883;48.996;20.804;2024-02-04T06:52:41;37.60;;;19.85;;
75289;SDS011;63883;48.996;20.804;2024-02-04T06:55:08;37.28;;;20.05;;
75289;SDS011;63883;48.996;20.804;2024-02-04T06:57:34;36.67;;;19.75;;
75289;SDS011;63883;48.996;20.804;2024-02-04T07:00:00;38.65;;;20.80;;
75289;SDS011;63883;48.996;20.804;2024-02-04T07:02:25;37.75;;;20.73;;
75289;SDS011;63883;48.996;20.804;2024-02-04T07:04:52;35.72;;;20.05;;
75289;SDS011;63883;48.996;20.804;2024-02-04T07:07:18;33.65;;;18.52;;
75289;SDS011;63883;48.996;20.804;2024-02-04T07:09:43;33.30;;;17.05;;
75289;SDS011;63883;48.996;20.804;2024-02-04T07:12:09;33.17;;;17.42;;
75289;SDS011;63883;48.996;20.804;2024-02-04T07:14:35;91.68;;;43.90;;
75289;SDS011;63883;48.996;20.804;2024-02-04T07:17:00;44.13;;;23.55;;
75289;SDS011;63883;48.996;20.804;2024-02-04T07:19:26;47.30;;;25.80;;
75289;SDS011;63883;48.996;20.804;2024-02-04T07:21:52;41.83;;;22.95;;
75289;SDS011;63883;48.996;20.804;2024-02-04T07:24:17;33.45;;;19.27;;
75289;SDS011;63883;48.996;20.804;2024-02-04T07:26:44;33.40;;;19.58;;
75289;SDS011;63883;48.996;20.804;2024-02-04T07:29:12;35.45;;;18.55;;
75289;SDS011;63883;48.996;20.804;2024-02-04T07:31:38;32.47;;;17.23;;
75289;SDS011;63883;48.996;20.804;2024-02-04T07:34:04;31.17;;;16.90;;
75289;SDS011;63883;48.996;20.804;2024-02-04T07:36:30;29.08;;;16.92;;
75289;SDS011;63883;48.996;20.804;2024-02-04T07:38:56;33.75;;;18.00;;
75289;SDS011;63883;48.996;20.804;2024-02-04T07:41:22;31.23;;;18.05;;
75289;SDS011;63883;48.996;20.804;2024-02-04T07:43:48;31.83;;;18.27;;
75289;SDS011;63883;48.996;20.804;2024-02-04T07:46:14;31.15;;;17.17;;
75289;SDS011;63883;48.996;20.804;2024-02-04T07:48:40;30.80;;;16.20;;
75289;SDS011;63883;48.996;20.804;2024-02-04T07:51:08;28.25;;;15.05;;
75289;SDS011;63883;48.996;20.804;2024-02-04T07:53:34;27.38;;;14.95;;
75289;SDS011;63883;48.996;20.804;2024-02-04T07:56:01;24.63;;;13.82;;
75289;SDS011;63883;48.996;20.804;2024-02-04T07:58:29;22.30;;;13.15;;
75289;SDS011;63883;48.996;20.804;2024-02-04T08:00:54;24.00;;;12.77;;
75289;SDS011;63883;48.996;20.804;2024-02-04T08:03:20;25.55;;;14.88;;
75289;SDS011;63883;48.996;20.804;2024-02-04T08:05:46;22.95;;;13.35;;
75289;SDS011;63883;48.996;20.804;2024-02-04T08:08:12;24.33;;;13.77;;
75289;SDS011;63883;48.996;20.804;2024-02-04T08:10:37;20.65;;;12.23;;
75289;SDS011;63883;48.996;20.804;2024-02-04T08:13:03;20.83;;;11.23;;
75289;SDS011;63883;48.996;20.804;2024-02-04T08:15:29;18.20;;;9.38;;
75289;SDS011;63883;48.996;20.804;2024-02-04T08:17:54;7.97;;;5.45;;
75289;SDS011;63883;48.996;20.804;2024-02-04T08:20:21;3.72;;;2.10;;
75289;SDS011;63883;48.996;20.804;2024-02-04T08:22:47;4.78;;;3.15;;
75289;SDS011;63883;48.996;20.804;2024-02-04T08:25:13;2.55;;;1.80;;
75289;SDS011;63883;48.996;20.804;2024-02-04T08:27:38;1.10;;;1.10;;
75289;SDS011;63883;48.996;20.804;2024-02-04T08:30:05;1.50;;;1.10;;
75289;SDS011;63883;48.996;20.804;2024-02-04T08:32:31;2.40;;;1.90;;
75289;SDS011;63883;48.996;20.804;2024-02-04T08:34:57;1.20;;;1.10;;
75289;SDS011;63883;48.996;20.804;2024-02-04T08:37:22;21.60;;;12.85;;
75289;SDS011;63883;48.996;20.804;2024-02-04T08:39:48;24.85;;;15.70;;
75289;SDS011;63883;48.996;20.804;2024-02-04T08:42:14;22.92;;;14.20;;
75289;SDS011;63883;48.996;20.804;2024-02-04T08:44:40;22.50;;;14.15;;
75289;SDS011;63883;48.996;20.804;2024-02-04T08:47:07;24.80;;;13.90;;
75289;SDS011;63883;48.996;20.804;2024-02-04T08:49:35;24.50;;;13.88;;
75289;SDS011;63883;48.996;20.804;2024-02-04T08:52:02;22.33;;;12.90;;
75289;SDS011;63883;48.996;20.804;2024-02-04T08:54:27;26.17;;;15.48;;
75289;SDS011;63883;48.996;20.804;2024-02-04T08:56:53;15.88;;;9.98;;
75289;SDS011;63883;48.996;20.804;2024-02-04T08:59:19;14.65;;;9.68;;
75289;SDS011;63883;48.996;20.804;2024-02-04T09:01:45;19.02;;;10.85;;
75289;SDS011;63883;48.996;20.804;2024-02-04T09:04:10;21.55;;;14.18;;
75289;SDS011;63883;48.996;20.804;2024-02-04T09:06:36;15.85;;;9.77;;
75289;SDS011;63883;48.996;20.804;2024-02-04T09:09:02;17.63;;;10.15;;
75289;SDS011;63883;48.996;20.804;2024-02-04T09:11:28;15.32;;;9.57;;
75289;SDS011;63883;48.996;20.804;2024-02-04T09:13:53;15.90;;;9.52;;
75289;SDS011;63883;48.996;20.804;2024-02-04T09:16:19;15.38;;;9.02;;
75289;SDS011;63883;48.996;20.804;2024-02-04T09:18:45;15.25;;;9.10;;
75289;SDS011;63883;48.996;20.804;2024-02-04T09:21:12;15.43;;;8.95;;
75289;SDS011;63883;48.996;20.804;2024-02-04T09:23:39;20.50;;;13.30;;
75289;SDS011;63883;48.996;20.804;2024-02-04T09:26:05;26.27;;;16.17;;
75289;SDS011;63883;48.996;20.804;2024-02-04T09:28:30;22.48;;;13.30;;
75289;SDS011;63883;48.996;20.804;2024-02-04T09:30:56;19.70;;;11.40;;
75289;SDS011;63883;48.996;20.804;2024-02-04T09:33:22;18.88;;;10.80;;
75289;SDS011;63883;48.996;20.804;2024-02-04T09:35:48;21.20;;;11.85;;
75289;SDS011;63883;48.996;20.804;2024-02-04T09:38:14;16.50;;;9.18;;
75289;SDS011;63883;48.996;20.804;2024-02-04T09:40:40;9.25;;;6.53;;
75289;SDS011;63883;48.996;20.804;2024-02-04T09:43:06;9.30;;;5.55;;
75289;SDS011;63883;48.996;20.804;2024-02-04T09:45:33;8.45;;;5.45;;
75289;SDS011;63883;48.996;20.804;2024-02-04T09:48:00;9.10;;;5.70;;
75289;SDS011;63883;48.996;20.804;2024-02-04T09:50:27;19.33;;;8.93;;
75289;SDS011;63883;48.996;20.804;2024-02-04T09:52:55;11.05;;;6.03;;
75289;SDS011;63883;48.996;20.804;2024-02-04T09:55:25;14.48;;;7.82;;
75289;SDS011;63883;48.996;20.804;2024-02-04T09:57:51;10.32;;;6.00;;
75289;SDS011;63883;48.996;20.804;2024-02-04T10:00:18;9.27;;;5.35;;
75289;SDS011;63883;48.996;20.804;2024-02-04T10:02:45;7.53;;;4.88;;
75289;SDS011;63883;48.996;20.804;2024-02-04T10:05:13;8.85;;;5.03;;
75289;SDS011;63883;48.996;20.804;2024-02-04T10:07:39;16.33;;;7.95;;
75289;SDS011;63883;48.996;20.804;2024-02-04T10:10:06;28.92;;;13.18;;
75289;SDS011;63883;48.996;20.804;2024-02-04T10:12:32;12.48;;;6.18;;
75289;SDS011;63883;48.996;20.804;2024-02-04T10:14:58;23.67;;;10.13;;
75289;SDS011;63883;48.996;20.804;2024-02-04T10:17:24;12.95;;;6.35;;
75289;SDS011;63883;48.996;20.804;2024-02-04T10:19:51;14.27;;;7.18;;
75289;SDS011;63883;48.996;20.804;2024-02-04T10:22:16;9.30;;;5.30;;
75289;SDS011;63883;48.996;20.804;2024-02-04T10:24:45;4.28;;;2.90;;
75289;SDS011;63883;48.996;20.804;2024-02-04T10:29:40;10.85;;;6.82;;
75289;SDS011;63883;48.996;20.804;2024-02-04T10:32:06;3.70;;;2.40;;
75289;SDS011;63883;48.996;20.804;2024-02-04T10:34:37;18.30;;;7.80;;
75289;SDS011;63883;48.996;20.804;2024-02-04T10:37:03;16.42;;;8.18;;
75289;SDS011;63883;48.996;20.804;2024-02-04T10:39:29;3.88;;;2.40;;
75289;SDS011;63883;48.996;20.804;2024-02-04T10:41:54;3.58;;;2.30;;
75289;SDS011;63883;48.996;20.804;2024-02-04T10:44:24;4.20;;;2.50;;
75289;SDS011;63883;48.996;20.804;2024-02-04T10:46:53;3.92;;;2.70;;
75289;SDS011;63883;48.996;20.804;2024-02-04T10:49:20;3.28;;;2.30;;
75289;SDS011;63883;48.996;20.804;2024-02-04T10:51:51;3.70;;;2.55;;
75289;SDS011;63883;48.996;20.804;2024-02-04T10:54:21;2.97;;;2.22;;
75289;SDS011;63883;48.996;20.804;2024-02-04T10:56:54;3.85;;;2.90;;
75289;SDS011;63883;48.996;20.804;2024-02-04T10:59:22;4.75;;;2.30;;
75289;SDS011;63883;48.996;20.804;2024-02-04T11:01:49;3.20;;;2.42;;
75289;SDS011;63883;48.996;20.804;2024-02-04T11:04:16;5.45;;;2.92;;
75289;SDS011;63883;48.996;20.804;2024-02-04T11:06:42;3.90;;;2.50;;
75289;SDS011;63883;48.996;20.804;2024-02-04T11:09:11;3.65;;;2.28;;
75289;SDS011;63883;48.996;20.804;2024-02-04T11:11:37;2.60;;;2.15;;
75289;SDS011;63883;48.996;20.804;2024-02-04T11:14:05;2.55;;;1.92;;
75289;SDS011;63883;48.996;20.804;2024-02-04T11:16:44;1.90;;;1.50;;
75289;SDS011;63883;48.996;20.804;2024-02-04T11:28:02;2.22;;;1.52;;
75289;SDS011;63883;48.996;20.804;2024-02-04T11:30:37;1.10;;;1.10;;
75289;SDS011;63883;48.996;20.804;2024-02-04T11:33:03;0.77;;;0.77;;
75289;SDS011;63883;48.996;20.804;2024-02-04T11:35:31;0.90;;;0.90;;
75289;SDS011;63883;48.996;20.804;2024-02-04T11:37:57;1.05;;;0.98;;
75289;SDS011;63883;48.996;20.804;2024-02-04T11:40:23;1.50;;;1.15;;
75289;SDS011;63883;48.996;20.804;2024-02-04T11:43:03;1.20;;;1.10;;
75289;SDS011;63883;48.996;20.804;2024-02-04T11:45:32;0.70;;;0.70;;
75289;SDS011;63883;48.996;20.804;2024-02-04T11:48:06;0.75;;;0.75;;
75289;SDS011;63883;48.996;20.804;2024-02-04T11:50:32;0.70;;;0.70;;
75289;SDS011;63883;48.996;20.804;2024-02-04T11:53:16;3.22;;;1.90;;
75289;SDS011;63883;48.996;20.804;2024-02-04T11:55:42;2.63;;;1.77;;
75289;SDS011;63883;48.996;20.804;2024-02-04T11:58:09;1.25;;;1.15;;
75289;SDS011;63883;48.996;20.804;2024-02-04T12:00:35;0.80;;;0.80;;
75289;SDS011;63883;48.996;20.804;2024-02-04T12:03:01;0.88;;;0.88;;
75289;SDS011;63883;48.996;20.804;2024-02-04T12:05:32;1.80;;;1.60;;
75289;SDS011;63883;48.996;20.804;2024-02-04T12:08:00;0.63;;;0.63;;
75289;SDS011;63883;48.996;20.804;2024-02-04T12:10:28;0.85;;;0.85;;
75289;SDS011;63883;48.996;20.804;2024-02-04T12:12:55;0.90;;;0.90;;
75289;SDS011;63883;48.996;20.804;2024-02-04T12:15:21;0.77;;;0.77;;
75289;SDS011;63883;48.996;20.804;2024-02-04T12:17:47;2.50;;;2.13;;
75289;SDS011;63883;48.996;20.804;2024-02-04T12:20:13;1.00;;;1.00;;
75289;SDS011;63883;48.996;20.804;2024-02-04T12:22:39;0.70;;;0.70;;
75289;SDS011;63883;48.996;20.804;2024-02-04T12:25:06;0.63;;;0.63;;
75289;SDS011;63883;48.996;20.804;2024-02-04T12:27:31;1.38;;;1.27;;
75289;SDS011;63883;48.996;20.804;2024-02-04T12:29:57;1.30;;;1.20;;
75289;SDS011;63883;48.996;20.804;2024-02-04T12:32:24;2.08;;;1.30;;
75289;SDS011;63883;48.996;20.804;2024-02-04T12:34:49;2.13;;;1.80;;
75289;SDS011;63883;48.996;20.804;2024-02-04T12:37:19;1.00;;;1.00;;
75289;SDS011;63883;48.996;20.804;2024-02-04T12:39:45;1.10;;;1.10;;
75289;SDS011;63883;48.996;20.804;2024-02-04T12:42:17;0.80;;;0.80;;
75289;SDS011;63883;48.996;20.804;2024-02-04T12:44:46;1.10;;;1.02;;
75289;SDS011;63883;48.996;20.804;2024-02-04T12:47:13;0.80;;;0.80;;
75289;SDS011;63883;48.996;20.804;2024-02-04T12:49:40;1.23;;;0.77;;
75289;SDS011;63883;48.996;20.804;2024-02-04T12:52:06;0.70;;;0.70;;
75289;SDS011;63883;48.996;20.804;2024-02-04T12:54:42;0.88;;;0.88;;
75289;SDS011;63883;48.996;20.804;2024-02-04T12:57:09;1.10;;;1.00;;
75289;SDS011;63883;48.996;20.804;2024-02-04T12:59:37;1.98;;;1.30;;
75289;SDS011;63883;48.996;20.804;2024-02-04T13:02:08;0.80;;;0.80;;
75289;SDS011;63883;48.996;20.804;2024-02-04T13:04:35;0.82;;;0.82;;
75289;SDS011;63883;48.996;20.804;2024-02-04T13:07:01;0.90;;;0.90;;
75289;SDS011;63883;48.996;20.804;2024-02-04T13:09:31;0.93;;;0.85;;
75289;SDS011;63883;48.996;20.804;2024-02-04T13:12:06;0.80;;;0.80;;
75289;SDS011;63883;48.996;20.804;2024-02-04T13:14:34;0.90;;;0.90;;
75289;SDS011;63883;48.996;20.804;2024-02-04T13:17:00;2.58;;;1.88;;
75289;SDS011;63883;48.996;20.804;2024-02-04T13:19:32;1.20;;;1.20;;
75289;SDS011;63883;48.996;20.804;2024-02-04T13:21:59;1.00;;;1.00;;
75289;SDS011;63883;48.996;20.804;2024-02-04T13:24:25;0.90;;;0.90;;
75289;SDS011;63883;48.996;20.804;2024-02-04T13:26:51;1.42;;;1.30;;
75289;SDS011;63883;48.996;20.804;2024-02-04T13:29:16;0.70;;;0.70;;
75289;SDS011;63883;48.996;20.804;2024-02-04T13:31:42;3.90;;;2.40;;
75289;SDS011;63883;48.996;20.804;2024-02-04T13:34:07;4.25;;;3.00;;
75289;SDS011;63883;48.996;20.804;2024-02-04T13:36:34;3.15;;;1.70;;
75289;SDS011;63883;48.996;20.804;2024-02-04T13:38:59;1.38;;;0.95;;
75289;SDS011;63883;48.996;20.804;2024-02-04T13:41:25;2.28;;;1.83;;
75289;SDS011;63883;48.996;20.804;2024-02-04T13:43:51;0.70;;;0.70;;
75289;SDS011;63883;48.996;20.804;2024-02-04T13:46:17;1.60;;;1.30;;
75289;SDS011;63883;48.996;20.804;2024-02-04T13:48:43;0.90;;;0.90;;
75289;SDS011;63883;48.996;20.804;2024-02-04T13:51:08;1.05;;;1.05;;
75289;SDS011;63883;48.996;20.804;2024-02-04T13:53:34;0.95;;;0.95;;
75289;SDS011;63883;48.996;20.804;2024-02-04T13:56:01;1.65;;;1.13;;
75289;SDS011;63883;48.996;20.804;2024-02-04T13:58:27;1.27;;;1.10;;
75289;SDS011;63883;48.996;20.804;2024-02-04T14:00:52;1.27;;;1.17;;
75289;SDS011;63883;48.996;20.804;2024-02-04T14:03:18;8.77;;;5.88;;
75289;SDS011;63883;48.996;20.804;2024-02-04T14:05:44;22.92;;;12.40;;
75289;SDS011;63883;48.996;20.804;2024-02-04T14:08:10;9.20;;;5.47;;
75289;SDS011;63883;48.996;20.804;2024-02-04T14:10:36;1.10;;;0.98;;
75289;SDS011;63883;48.996;20.804;2024-02-04T14:13:02;4.57;;;3.60;;
75289;SDS011;63883;48.996;20.804;2024-02-04T14:15:28;1.60;;;1.50;;
75289;SDS011;63883;48.996;20.804;2024-02-04T14:17:53;1.10;;;1.00;;
75289;SDS011;63883;48.996;20.804;2024-02-04T14:20:20;1.33;;;1.23;;
75289;SDS011;63883;48.996;20.804;2024-02-04T14:22:47;1.55;;;1.27;;
75289;SDS011;63883;48.996;20.804;2024-02-04T14:25:16;0.60;;;0.60;;
75289;SDS011;63883;48.996;20.804;2024-02-04T14:27:42;0.70;;;0.70;;
75289;SDS011;63883;48.996;20.804;2024-02-04T14:30:08;2.08;;;1.20;;
75289;SDS011;63883;48.996;20.804;2024-02-04T14:32:35;3.60;;;2.45;;
75289;SDS011;63883;48.996;20.804;2024-02-04T14:35:02;2.33;;;1.85;;